Main page
METAR-TAF:

METAR-TAF

Airports :

Mariscal Sucre Airport

Maracay, Venezuela

latitude: 10-15N, longitude: 067-39W, elevation: 436 m

Current weather observation

The report was made 28 minutes ago, at 08:02 UTC
Wind 1 kt from the North
Temperature 27°C
Humidity 62%
Pressure 1013 hPa

METAR: SVBS 030802Z AUTO 36001KT NCD 27/19 Q1013

Time: 04:30 (08:30 UTC)


TAF: missing

Weather observations and forecasts of more than 4000 airports (METAR and TAF reports).

The available stations are represented by yellow and red dots on the map.

Hover mouse over dot to see the name of the station.

Then click to see weather observations and forecasts.

To change the map : click on the green buttons with a black cross to zoom in, on the green button with a dash to zoom out, or on the green arrows for adjacent maps.


METAR-TAF: